createdAt,value
2022-09-02T00:03:43.298Z,4.10
2022-09-02T00:08:45.305Z,4.40
2022-09-02T00:13:47.798Z,4.20
2022-09-02T00:18:50.266Z,4.00
2022-09-02T00:23:52.154Z,4.40
2022-09-02T00:29:00.522Z,3.80
2022-09-02T00:34:15.983Z,4.20
2022-09-02T00:39:22.989Z,3.80
2022-09-02T00:44:27.630Z,4.00
2022-09-02T00:49:34.119Z,4.30
2022-09-02T00:54:45.931Z,4.10
2022-09-02T00:59:53.674Z,4.10
2022-09-02T01:04:56.975Z,3.90
2022-09-02T01:09:59.475Z,3.60
2022-09-02T01:15:01.760Z,3.70
2022-09-02T01:20:06.948Z,4.10
2022-09-02T01:25:10.808Z,3.90
2022-09-02T01:30:14.431Z,4.20
2022-09-02T01:35:17.531Z,4.20
2022-09-02T01:40:19.718Z,3.90
2022-09-02T01:45:22.310Z,4.30
2022-09-02T01:50:24.292Z,4.20
2022-09-02T01:55:26.609Z,4.20
2022-09-02T02:00:29.319Z,4.80
2022-09-02T02:05:31.475Z,4.00
2022-09-02T02:10:33.843Z,4.10
2022-09-02T02:15:39.671Z,4.40
2022-09-02T02:20:42.911Z,5.00
2022-09-02T02:25:47.057Z,5.40
2022-09-02T02:30:48.936Z,7.00
2022-09-02T02:35:52.145Z,6.60
2022-09-02T02:40:57.894Z,6.20
2022-09-02T02:46:00.134Z,6.90
2022-09-02T02:51:03.513Z,5.90
2022-09-02T02:56:05.909Z,7.00
2022-09-02T03:01:08.321Z,6.20
2022-09-02T03:06:11.012Z,6.00
2022-09-02T03:11:13.432Z,6.10
2022-09-02T03:16:16.739Z,6.40
2022-09-02T03:21:19.378Z,5.70
2022-09-02T03:26:23.723Z,5.20
2022-09-02T03:31:27.103Z,6.00
2022-09-02T03:36:32.185Z,5.90
2022-09-02T03:41:34.494Z,6.10
2022-09-02T03:46:37.067Z,5.60
2022-09-02T03:51:41.495Z,5.80
2022-09-02T03:56:44.258Z,5.30
2022-09-02T04:01:49.090Z,5.80
2022-09-02T04:06:51.091Z,6.40
2022-09-02T04:11:53.107Z,5.20
2022-09-02T04:16:55.392Z,6.10
2022-09-02T04:21:58.427Z,6.90
2022-09-02T04:27:04.246Z,5.70
2022-09-02T04:32:07.789Z,6.00
2022-09-02T04:37:09.972Z,5.70
2022-09-02T04:42:11.944Z,6.00
2022-09-02T04:47:14.978Z,6.10
2022-09-02T04:52:17.851Z,5.40
2022-09-02T04:57:20.957Z,5.30
2022-09-02T05:02:23.132Z,5.40
2022-09-02T05:07:25.871Z,5.20
2022-09-02T05:12:28.249Z,7.00
2022-09-02T05:17:33.238Z,6.90
2022-09-02T05:22:37.001Z,11.80
2022-09-02T05:27:39.388Z,7.70
2022-09-02T05:32:42.493Z,15.60
2022-09-02T05:37:44.682Z,8.60
2022-09-02T05:42:59.399Z,8.00
2022-09-02T05:48:50.414Z,6.70
2022-09-02T05:53:53.849Z,9.50
2022-09-02T05:58:56.617Z,8.80
2022-09-02T06:03:59.762Z,7.70
2022-09-02T06:09:01.841Z,8.30
2022-09-02T06:14:05.979Z,7.80
2022-09-02T06:19:10.360Z,11.60
2022-09-02T06:24:14.486Z,7.00
2022-09-02T06:29:17.200Z,6.70
2022-09-02T06:34:21.317Z,6.40
2022-09-02T06:39:26.119Z,5.40
2022-09-02T06:44:38.479Z,5.80
2022-09-02T06:49:40.362Z,5.30
2022-09-02T06:54:42.413Z,5.20
2022-09-02T06:59:47.590Z,4.00
2022-09-02T07:05:09.340Z,4.10
2022-09-02T07:10:13.180Z,3.90
2022-09-02T07:15:15.301Z,3.10
2022-09-02T07:20:17.823Z,4.30
2022-09-02T07:25:24.259Z,3.20
2022-09-02T07:30:26.753Z,5.90
2022-09-02T07:35:37.429Z,3.20
2022-09-02T07:40:42.037Z,3.20
2022-09-02T07:45:45.333Z,3.60
2022-09-02T07:50:48.150Z,3.80
2022-09-02T07:55:51.561Z,3.30
2022-09-02T08:00:57.125Z,2.60
2022-09-02T08:05:59.437Z,2.40
2022-09-02T08:11:06.534Z,2.50
2022-09-02T08:16:08.697Z,1.60
2022-09-02T08:21:11.500Z,1.90
2022-09-02T08:26:13.585Z,2.00
2022-09-02T08:31:15.531Z,2.00
2022-09-02T08:36:17.430Z,2.60
2022-09-02T08:41:33.822Z,1.60
2022-09-02T08:46:36.122Z,2.00
2022-09-02T08:51:41.404Z,5.10
2022-09-02T08:56:43.207Z,1.80
2022-09-02T09:01:45.415Z,2.10
2022-09-02T09:07:13.006Z,1.90
2022-09-02T09:12:36.037Z,1.70
2022-09-02T09:17:41.323Z,3.20
2022-09-02T09:22:43.863Z,4.20
2022-09-02T09:27:46.253Z,2.40
2022-09-02T09:32:50.019Z,1.80
2022-09-02T09:37:52.795Z,4.60
2022-09-02T09:43:17.418Z,2.90
2022-09-02T09:48:19.566Z,6.10
2022-09-02T09:53:35.419Z,2.40
2022-09-02T09:58:41.304Z,2.10
2022-09-02T10:03:55.952Z,1.30
2022-09-02T10:09:02.917Z,1.30
2022-09-02T10:19:09.639Z,1.60
2022-09-02T10:24:31.931Z,0.90
2022-09-02T10:29:43.745Z,1.50
2022-09-02T10:35:10.514Z,1.30
2022-09-02T10:40:17.737Z,1.60
2022-09-02T10:45:25.869Z,1.40
2022-09-02T10:50:30.459Z,1.00
2022-09-02T10:55:50.447Z,1.40
2022-09-02T11:01:12.692Z,1.30
2022-09-02T11:06:31.776Z,1.60
2022-09-02T11:12:02.454Z,1.80
2022-09-02T11:17:13.384Z,1.60
2022-09-02T11:22:35.876Z,1.70
2022-09-02T11:27:58.234Z,1.80
2022-09-02T11:33:19.079Z,6.80
2022-09-02T11:38:39.670Z,1.60
2022-09-02T11:43:52.539Z,1.80
2022-09-02T11:49:03.840Z,2.30
2022-09-02T11:54:06.330Z,1.40
2022-09-02T11:59:19.153Z,1.80
2022-09-02T12:09:49.825Z,1.50
2022-09-02T12:14:55.181Z,1.30
2022-09-02T12:19:56.945Z,2.70
2022-09-02T12:25:02.205Z,1.30
2022-09-02T12:30:10.232Z,2.30
2022-09-02T12:35:31.576Z,1.40
2022-09-02T12:40:36.362Z,1.20
2022-09-02T12:45:42.961Z,1.70
2022-09-02T12:56:12.730Z,0.80
2022-09-02T13:01:27.999Z,1.30
2022-09-02T13:07:05.665Z,1.40
2022-09-02T13:12:30.405Z,1.30
2022-09-02T13:17:44.230Z,1.80
2022-09-02T13:23:05.073Z,1.90
2022-09-02T13:28:25.093Z,2.20
2022-09-02T13:33:27.341Z,1.40
2022-09-02T13:38:33.066Z,1.90
2022-09-02T13:43:35.030Z,1.80
2022-09-02T13:48:57.609Z,1.90
2022-09-02T13:54:23.430Z,1.30
2022-09-02T13:59:36.847Z,1.70
2022-09-02T14:04:39.785Z,1.70
2022-09-02T14:09:44.389Z,1.50
2022-09-02T14:14:46.574Z,1.50
2022-09-02T14:19:48.896Z,1.30
2022-09-02T14:24:57.825Z,1.10
2022-09-02T14:29:59.885Z,1.10
2022-09-02T14:35:09.646Z,1.00
2022-09-02T14:40:12.607Z,1.00
2022-09-02T14:45:14.790Z,1.00
2022-09-02T14:50:19.475Z,1.60
2022-09-02T14:55:43.052Z,1.10
2022-09-02T15:00:59.661Z,1.40
2022-09-02T15:06:01.666Z,1.60
2022-09-02T15:11:03.833Z,1.40
2022-09-02T15:16:06.752Z,1.00
2022-09-02T15:21:09.856Z,1.40
2022-09-02T15:26:11.941Z,1.50
2022-09-02T15:31:14.446Z,1.70
2022-09-02T15:36:16.581Z,1.80
2022-09-02T15:41:22.838Z,1.50
2022-09-02T15:46:27.188Z,1.60
2022-09-02T15:51:29.113Z,2.00
2022-09-02T15:56:32.830Z,1.80
2022-09-02T16:01:35.193Z,2.30
2022-09-02T16:06:39.658Z,2.00
2022-09-02T16:11:42.560Z,1.60
2022-09-02T16:16:45.600Z,1.60
2022-09-02T16:21:53.822Z,2.90
2022-09-02T16:26:55.594Z,2.10
2022-09-02T16:32:14.385Z,2.20
2022-09-02T16:37:17.640Z,2.60
2022-09-02T16:42:19.448Z,2.30
2022-09-02T16:47:24.009Z,2.00
2022-09-02T16:52:26.020Z,2.30
2022-09-02T16:57:27.815Z,3.20
2022-09-02T17:02:30.485Z,2.70
2022-09-02T17:07:33.009Z,2.80
2022-09-02T17:12:36.678Z,3.30
2022-09-02T17:17:42.537Z,2.70
2022-09-02T17:22:44.619Z,3.30
2022-09-02T17:27:46.568Z,2.80
2022-09-02T17:32:51.853Z,3.50
2022-09-02T17:37:56.456Z,3.40
2022-09-02T17:42:58.185Z,3.60
2022-09-02T17:48:19.253Z,3.50
2022-09-02T17:53:23.282Z,4.10
2022-09-02T17:58:26.510Z,3.70
2022-09-02T18:03:40.136Z,3.60
2022-09-02T18:08:57.214Z,4.10
2022-09-02T18:14:13.014Z,5.10
2022-09-02T18:19:21.035Z,4.30
2022-09-02T18:24:32.203Z,4.50
2022-09-02T18:29:49.238Z,4.60
2022-09-02T18:35:00.427Z,5.20
2022-09-02T18:40:12.243Z,5.50
2022-09-02T18:45:43.000Z,5.40
2022-09-02T18:50:50.813Z,5.20
2022-09-02T18:55:54.075Z,4.70
2022-09-02T19:00:58.466Z,4.90
2022-09-02T19:06:00.630Z,6.60
2022-09-02T19:11:02.413Z,5.50
2022-09-02T19:16:05.029Z,5.20
2022-09-02T19:21:08.147Z,9.90
2022-09-02T19:26:09.991Z,6.00
2022-09-02T19:31:26.801Z,5.50
2022-09-02T19:36:31.279Z,5.50
2022-09-02T19:41:40.617Z,5.50
2022-09-02T19:52:04.469Z,5.40
2022-09-02T19:57:06.623Z,5.90
2022-09-02T20:02:08.542Z,5.40
2022-09-02T20:07:10.416Z,5.90
2022-09-02T20:12:14.509Z,5.70
2022-09-02T20:17:20.516Z,6.40
2022-09-02T20:22:22.436Z,6.70
2022-09-02T20:27:30.547Z,7.00
2022-09-02T20:32:32.215Z,6.50
2022-09-02T20:37:41.142Z,6.20
2022-09-02T20:42:48.877Z,6.80
2022-09-02T20:47:58.430Z,8.00
2022-09-02T20:53:12.126Z,7.20
2022-09-02T20:58:16.573Z,6.40
2022-09-02T21:03:19.257Z,7.00
2022-09-02T21:08:25.180Z,6.70
2022-09-02T21:13:42.495Z,7.00
2022-09-02T21:18:47.201Z,6.30
2022-09-02T21:23:51.856Z,6.60
2022-09-02T21:28:56.702Z,5.40
2022-09-02T21:34:01.522Z,6.60
2022-09-02T21:39:06.123Z,5.80
2022-09-02T21:44:26.447Z,5.90
2022-09-02T21:49:31.789Z,4.90
2022-09-02T21:54:33.842Z,5.60
2022-09-02T21:59:57.508Z,7.10
2022-09-02T22:05:15.639Z,7.20
2022-09-02T22:10:29.481Z,7.30
2022-09-02T22:15:34.680Z,6.90
2022-09-02T22:20:39.340Z,8.90
2022-09-02T22:25:41.749Z,8.50
2022-09-02T22:30:47.120Z,9.20
2022-09-02T22:35:54.318Z,9.20
2022-09-02T22:40:58.947Z,8.50
2022-09-02T22:46:25.065Z,8.10
2022-09-02T22:51:48.799Z,7.40
2022-09-02T22:57:02.257Z,7.20
2022-09-02T23:02:09.199Z,6.40
2022-09-02T23:07:13.678Z,6.60
2022-09-02T23:12:29.708Z,6.90
2022-09-02T23:17:34.804Z,5.80
2022-09-02T23:22:54.944Z,6.20
2022-09-02T23:27:56.651Z,6.70
2022-09-02T23:33:11.825Z,7.10
2022-09-02T23:38:19.559Z,8.10
2022-09-02T23:43:22.055Z,6.90
2022-09-02T23:48:44.273Z,9.10
2022-09-02T23:53:48.980Z,8.20
2022-09-02T23:58:57.517Z,7.50
